sensor_id;sensor_type;location;lat;lon;timestamp;pressure;altitude;pressure_sealevel;temperature;humidity
4576;BME280;2300;51.874;8.430;2023-07-24T00:02:05;99725.13;;;18.30;100.00
4576;BME280;2300;51.874;8.430;2023-07-24T00:04:33;99692.50;;;18.08;100.00
4576;BME280;2300;51.874;8.430;2023-07-24T00:07:01;99721.75;;;18.33;100.00
4576;BME280;2300;51.874;8.430;2023-07-24T00:09:29;99725.75;;;18.27;100.00
4576;BME280;2300;51.874;8.430;2023-07-24T00:11:55;99729.56;;;18.31;100.00
4576;BME280;2300;51.874;8.430;2023-07-24T00:14:24;99714.66;;;18.27;100.00
4576;BME280;2300;51.874;8.430;2023-07-24T00:16:52;99713.81;;;18.26;100.00
4576;BME280;2300;51.874;8.430;2023-07-24T00:19:20;99611.63;;;17.64;100.00
4576;BME280;2300;51.874;8.430;2023-07-24T00:21:47;99706.84;;;18.29;100.00
4576;BME280;2300;51.874;8.430;2023-07-24T00:24:14;99705.22;;;18.09;100.00
4576;BME280;2300;51.874;8.430;2023-07-24T00:26:41;99708.16;;;18.18;100.00
4576;BME280;2300;51.874;8.430;2023-07-24T00:29:08;99700.84;;;18.22;100.00
4576;BME280;2300;51.874;8.430;2023-07-24T00:31:34;99686.31;;;18.11;100.00
4576;BME280;2300;51.874;8.430;2023-07-24T00:34:01;99694.94;;;18.10;100.00
4576;BME280;2300;51.874;8.430;2023-07-24T00:36:29;99705.97;;;18.15;100.00
4576;BME280;2300;51.874;8.430;2023-07-24T00:38:57;99693.72;;;18.16;100.00
4576;BME280;2300;51.874;8.430;2023-07-24T00:41:24;99693.53;;;18.12;100.00
4576;BME280;2300;51.874;8.430;2023-07-24T00:43:51;99688.38;;;18.06;100.00
4576;BME280;2300;51.874;8.430;2023-07-24T00:46:17;99687.25;;;18.07;100.00
4576;BME280;2300;51.874;8.430;2023-07-24T00:48:45;99689.50;;;18.05;100.00
4576;BME280;2300;51.874;8.430;2023-07-24T00:51:12;99682.38;;;17.98;100.00
4576;BME280;2300;51.874;8.430;2023-07-24T00:53:40;99681.06;;;17.96;100.00
4576;BME280;2300;51.874;8.430;2023-07-24T00:56:08;99684.03;;;17.99;100.00
4576;BME280;2300;51.874;8.430;2023-07-24T00:58:37;99684.94;;;17.95;100.00
4576;BME280;2300;51.874;8.430;2023-07-24T01:01:04;99686.66;;;17.91;100.00
4576;BME280;2300;51.874;8.430;2023-07-24T01:03:34;99676.88;;;17.93;100.00
4576;BME280;2300;51.874;8.430;2023-07-24T01:06:02;99674.88;;;17.99;100.00
4576;BME280;2300;51.874;8.430;2023-07-24T01:08:29;99675.25;;;17.92;100.00
4576;BME280;2300;51.874;8.430;2023-07-24T01:11:03;99665.63;;;18.03;100.00
4576;BME280;2300;51.874;8.430;2023-07-24T01:13:36;99673.75;;;18.14;100.00
4576;BME280;2300;51.874;8.430;2023-07-24T01:16:09;99663.38;;;18.06;100.00
4576;BME280;2300;51.874;8.430;2023-07-24T01:18:38;99660.47;;;17.97;100.00
4576;BME280;2300;51.874;8.430;2023-07-24T01:21:08;99664.16;;;17.92;100.00
4576;BME280;2300;51.874;8.430;2023-07-24T01:23:51;99649.38;;;17.97;100.00
4576;BME280;2300;51.874;8.430;2023-07-24T01:26:25;99662.25;;;17.88;100.00
4576;BME280;2300;51.874;8.430;2023-07-24T01:28:52;99666.88;;;17.97;100.00
4576;BME280;2300;51.874;8.430;2023-07-24T01:31:21;99659.84;;;18.00;100.00
4576;BME280;2300;51.874;8.430;2023-07-24T01:33:48;99658.44;;;18.02;100.00
4576;BME280;2300;51.874;8.430;2023-07-24T01:36:18;99655.38;;;17.85;100.00
4576;BME280;2300;51.874;8.430;2023-07-24T01:38:45;99643.25;;;17.81;100.00
4576;BME280;2300;51.874;8.430;2023-07-24T01:41:14;99653.81;;;17.79;100.00
4576;BME280;2300;51.874;8.430;2023-07-24T01:43:43;99647.06;;;17.85;100.00
4576;BME280;2300;51.874;8.430;2023-07-24T01:46:09;99638.38;;;17.73;100.00
4576;BME280;2300;51.874;8.430;2023-07-24T01:48:36;99620.78;;;17.64;100.00
4576;BME280;2300;51.874;8.430;2023-07-24T01:51:03;99641.78;;;17.70;100.00
4576;BME280;2300;51.874;8.430;2023-07-24T01:53:30;99641.25;;;17.68;100.00
4576;BME280;2300;51.874;8.430;2023-07-24T01:55:58;99634.13;;;17.62;100.00
4576;BME280;2300;51.874;8.430;2023-07-24T01:58:24;99632.19;;;17.63;100.00
4576;BME280;2300;51.874;8.430;2023-07-24T02:00:56;99621.41;;;17.61;100.00
4576;BME280;2300;51.874;8.430;2023-07-24T02:03:23;99597.50;;;17.46;100.00
4576;BME280;2300;51.874;8.430;2023-07-24T02:05:50;99623.56;;;17.64;100.00
4576;BME280;2300;51.874;8.430;2023-07-24T02:08:17;99620.03;;;17.58;100.00
4576;BME280;2300;51.874;8.430;2023-07-24T02:10:48;99633.63;;;17.60;100.00
4576;BME280;2300;51.874;8.430;2023-07-24T02:13:14;99605.03;;;17.59;100.00
4576;BME280;2300;51.874;8.430;2023-07-24T02:15:41;99624.00;;;17.71;100.00
4576;BME280;2300;51.874;8.430;2023-07-24T02:18:09;99622.94;;;17.67;100.00
4576;BME280;2300;51.874;8.430;2023-07-24T02:20:35;99617.72;;;17.79;100.00
4576;BME280;2300;51.874;8.430;2023-07-24T02:23:03;99593.03;;;17.64;100.00
4576;BME280;2300;51.874;8.430;2023-07-24T02:25:29;99614.34;;;17.82;100.00
4576;BME280;2300;51.874;8.430;2023-07-24T02:27:56;99614.75;;;17.89;100.00
4576;BME280;2300;51.874;8.430;2023-07-24T02:30:23;99601.50;;;17.86;100.00
4576;BME280;2300;51.874;8.430;2023-07-24T02:32:50;99594.41;;;17.80;100.00
4576;BME280;2300;51.874;8.430;2023-07-24T02:35:19;99603.59;;;17.94;100.00
4576;BME280;2300;51.874;8.430;2023-07-24T02:37:47;99600.94;;;18.03;100.00
4576;BME280;2300;51.874;8.430;2023-07-24T02:40:15;99596.28;;;17.98;100.00
4576;BME280;2300;51.874;8.430;2023-07-24T02:42:42;99594.66;;;17.97;100.00
4576;BME280;2300;51.874;8.430;2023-07-24T02:45:12;99594.72;;;17.92;100.00
4576;BME280;2300;51.874;8.430;2023-07-24T02:47:39;99594.19;;;17.90;100.00
4576;BME280;2300;51.874;8.430;2023-07-24T02:50:08;99594.41;;;17.80;100.00
4576;BME280;2300;51.874;8.430;2023-07-24T02:52:39;99595.22;;;17.81;100.00
4576;BME280;2300;51.874;8.430;2023-07-24T02:55:08;99593.22;;;17.68;100.00
4576;BME280;2300;51.874;8.430;2023-07-24T02:57:34;99595.59;;;17.60;100.00
4576;BME280;2300;51.874;8.430;2023-07-24T03:00:01;99575.81;;;17.48;100.00
4576;BME280;2300;51.874;8.430;2023-07-24T03:02:29;99594.56;;;17.56;100.00
4576;BME280;2300;51.874;8.430;2023-07-24T03:04:56;99596.19;;;17.57;100.00
4576;BME280;2300;51.874;8.430;2023-07-24T03:07:22;99588.94;;;17.62;100.00
4576;BME280;2300;51.874;8.430;2023-07-24T03:09:52;99587.47;;;17.64;100.00
4576;BME280;2300;51.874;8.430;2023-07-24T03:12:22;99593.13;;;17.59;100.00
4576;BME280;2300;51.874;8.430;2023-07-24T03:14:49;99580.94;;;17.41;100.00
4576;BME280;2300;51.874;8.430;2023-07-24T03:17:16;99571.53;;;17.56;100.00
4576;BME280;2300;51.874;8.430;2023-07-24T03:19:43;99573.78;;;17.54;100.00
4576;BME280;2300;51.874;8.430;2023-07-24T03:22:10;99540.22;;;17.37;100.00
4576;BME280;2300;51.874;8.430;2023-07-24T03:24:36;99569.69;;;17.51;100.00
4576;BME280;2300;51.874;8.430;2023-07-24T03:27:05;99568.31;;;17.49;100.00
4576;BME280;2300;51.874;8.430;2023-07-24T03:29:32;99567.19;;;17.50;100.00
4576;BME280;2300;51.874;8.430;2023-07-24T03:31:59;99566.59;;;17.53;100.00
4576;BME280;2300;51.874;8.430;2023-07-24T03:34:26;99560.81;;;17.49;100.00
4576;BME280;2300;51.874;8.430;2023-07-24T03:36:54;99564.13;;;17.51;100.00
4576;BME280;2300;51.874;8.430;2023-07-24T03:39:22;99555.56;;;17.48;100.00
4576;BME280;2300;51.874;8.430;2023-07-24T03:41:49;99554.25;;;17.45;100.00
4576;BME280;2300;51.874;8.430;2023-07-24T03:44:17;99547.88;;;17.45;100.00
4576;BME280;2300;51.874;8.430;2023-07-24T03:46:44;99548.25;;;17.38;100.00
4576;BME280;2300;51.874;8.430;2023-07-24T03:49:11;99542.09;;;17.41;100.00
4576;BME280;2300;51.874;8.430;2023-07-24T03:51:38;99529.78;;;17.47;100.00
4576;BME280;2300;51.874;8.430;2023-07-24T03:54:05;99487.72;;;17.27;100.00
4576;BME280;2300;51.874;8.430;2023-07-24T03:56:32;99517.06;;;17.60;100.00
4576;BME280;2300;51.874;8.430;2023-07-24T03:58:59;99495.16;;;17.45;100.00
4576;BME280;2300;51.874;8.430;2023-07-24T04:01:27;99503.69;;;17.62;100.00
4576;BME280;2300;51.874;8.430;2023-07-24T04:03:58;99507.63;;;17.61;100.00
4576;BME280;2300;51.874;8.430;2023-07-24T04:06:25;99491.69;;;17.67;100.00
4576;BME280;2300;51.874;8.430;2023-07-24T04:08:52;99480.88;;;17.65;100.00
4576;BME280;2300;51.874;8.430;2023-07-24T04:11:20;99476.25;;;17.74;100.00
4576;BME280;2300;51.874;8.430;2023-07-24T04:13:48;99437.19;;;17.57;100.00
4576;BME280;2300;51.874;8.430;2023-07-24T04:16:14;99465.22;;;17.83;100.00
4576;BME280;2300;51.874;8.430;2023-07-24T04:18:43;99469.66;;;17.84;100.00
4576;BME280;2300;51.874;8.430;2023-07-24T04:21:11;99476.16;;;17.79;100.00
4576;BME280;2300;51.874;8.430;2023-07-24T04:23:40;99480.47;;;17.85;100.00
4576;BME280;2300;51.874;8.430;2023-07-24T04:26:08;99476.34;;;17.83;100.00
4576;BME280;2300;51.874;8.430;2023-07-24T04:28:35;99476.69;;;17.95;100.00
4576;BME280;2300;51.874;8.430;2023-07-24T04:31:02;99482.50;;;17.93;100.00
4576;BME280;2300;51.874;8.430;2023-07-24T04:33:32;99464.75;;;17.94;100.00
4576;BME280;2300;51.874;8.430;2023-07-24T04:36:01;99435.41;;;17.88;100.00
4576;BME280;2300;51.874;8.430;2023-07-24T04:38:28;99465.34;;;17.91;100.00
4576;BME280;2300;51.874;8.430;2023-07-24T04:40:54;99485.00;;;17.95;100.00
4576;BME280;2300;51.874;8.430;2023-07-24T04:43:22;99458.78;;;17.87;100.00
4576;BME280;2300;51.874;8.430;2023-07-24T04:45:49;99476.75;;;18.03;100.00
4576;BME280;2300;51.874;8.430;2023-07-24T04:48:16;99482.44;;;17.98;100.00
4576;BME280;2300;51.874;8.430;2023-07-24T04:50:42;99491.66;;;17.94;100.00
4576;BME280;2300;51.874;8.430;2023-07-24T04:53:11;99467.72;;;17.84;100.00
4576;BME280;2300;51.874;8.430;2023-07-24T04:55:38;99485.44;;;18.02;100.00
4576;BME280;2300;51.874;8.430;2023-07-24T04:58:11;99476.25;;;18.15;100.00
4576;BME280;2300;51.874;8.430;2023-07-24T05:00:40;99471.72;;;18.06;100.00
4576;BME280;2300;51.874;8.430;2023-07-24T05:03:07;99458.97;;;18.05;100.00
4576;BME280;2300;51.874;8.430;2023-07-24T05:05:36;99452.00;;;18.07;100.00
4576;BME280;2300;51.874;8.430;2023-07-24T05:08:03;99470.19;;;17.99;100.00
4576;BME280;2300;51.874;8.430;2023-07-24T05:10:35;99435.84;;;17.82;100.00
4576;BME280;2300;51.874;8.430;2023-07-24T05:13:03;99450.22;;;18.11;100.00
4576;BME280;2300;51.874;8.430;2023-07-24T05:15:32;99447.97;;;18.13;100.00
4576;BME280;2300;51.874;8.430;2023-07-24T05:17:58;99450.41;;;18.15;100.00
4576;BME280;2300;51.874;8.430;2023-07-24T05:20:25;99452.72;;;18.13;100.00
4576;BME280;2300;51.874;8.430;2023-07-24T05:22:51;99449.59;;;18.28;100.00
4576;BME280;2300;51.874;8.430;2023-07-24T05:25:19;99460.81;;;18.45;100.00
4576;BME280;2300;51.874;8.430;2023-07-24T05:27:47;99459.34;;;18.39;100.00
4576;BME280;2300;51.874;8.430;2023-07-24T05:30:14;99449.22;;;18.43;100.00
4576;BME280;2300;51.874;8.430;2023-07-24T05:32:40;99432.47;;;18.34;100.00
4576;BME280;2300;51.874;8.430;2023-07-24T05:35:07;99447.22;;;18.57;100.00
4576;BME280;2300;51.874;8.430;2023-07-24T05:37:34;99454.81;;;18.65;100.00
4576;BME280;2300;51.874;8.430;2023-07-24T05:40:01;99452.91;;;18.74;100.00
4576;BME280;2300;51.874;8.430;2023-07-24T05:42:28;99464.53;;;18.76;100.00
4576;BME280;2300;51.874;8.430;2023-07-24T05:44:56;99463.81;;;18.84;100.00
4576;BME280;2300;51.874;8.430;2023-07-24T05:47:23;99457.00;;;18.91;100.00
4576;BME280;2300;51.874;8.430;2023-07-24T05:49:49;99452.50;;;18.81;100.00
4576;BME280;2300;51.874;8.430;2023-07-24T05:52:16;99457.59;;;18.88;100.00
4576;BME280;2300;51.874;8.430;2023-07-24T05:54:44;99462.16;;;18.83;100.00
4576;BME280;2300;51.874;8.430;2023-07-24T05:57:11;99465.63;;;18.89;100.00
4576;BME280;2300;51.874;8.430;2023-07-24T05:59:37;99467.28;;;18.90;100.00
4576;BME280;2300;51.874;8.430;2023-07-24T06:02:06;99469.38;;;18.84;100.00
4576;BME280;2300;51.874;8.430;2023-07-24T06:04:35;99475.28;;;18.92;100.00
4576;BME280;2300;51.874;8.430;2023-07-24T06:07:01;99461.75;;;18.76;100.00
4576;BME280;2300;51.874;8.430;2023-07-24T06:09:29;99473.38;;;18.78;100.00
4576;BME280;2300;51.874;8.430;2023-07-24T06:11:56;99471.63;;;18.82;100.00
4576;BME280;2300;51.874;8.430;2023-07-24T06:14:22;99479.88;;;18.74;100.00
4576;BME280;2300;51.874;8.430;2023-07-24T06:16:49;99476.78;;;18.53;100.00
4576;BME280;2300;51.874;8.430;2023-07-24T06:19:18;99478.06;;;18.33;100.00
4576;BME280;2300;51.874;8.430;2023-07-24T06:21:44;99491.25;;;18.28;100.00
4576;BME280;2300;51.874;8.430;2023-07-24T06:24:11;99487.00;;;18.30;100.00
4576;BME280;2300;51.874;8.430;2023-07-24T06:26:38;99491.63;;;18.35;100.00
4576;BME280;2300;51.874;8.430;2023-07-24T06:29:05;99468.13;;;18.19;100.00
4576;BME280;2300;51.874;8.430;2023-07-24T06:31:32;99486.91;;;18.35;100.00
4576;BME280;2300;51.874;8.430;2023-07-24T06:34:00;99489.50;;;18.32;100.00
4576;BME280;2300;51.874;8.430;2023-07-24T06:36:28;99490.72;;;18.39;100.00
4576;BME280;2300;51.874;8.430;2023-07-24T06:38:54;99494.09;;;18.36;100.00
4576;BME280;2300;51.874;8.430;2023-07-24T06:41:21;99498.53;;;18.37;100.00
4576;BME280;2300;51.874;8.430;2023-07-24T06:43:49;99501.09;;;18.48;100.00
4576;BME280;2300;51.874;8.430;2023-07-24T06:46:15;99503.03;;;18.47;100.00
4576;BME280;2300;51.874;8.430;2023-07-24T06:48:43;99513.63;;;18.59;100.00
4576;BME280;2300;51.874;8.430;2023-07-24T06:51:09;99509.47;;;18.70;100.00
4576;BME280;2300;51.874;8.430;2023-07-24T06:53:38;99515.06;;;18.92;100.00
4576;BME280;2300;51.874;8.430;2023-07-24T06:56:04;99519.75;;;19.05;100.00
4576;BME280;2300;51.874;8.430;2023-07-24T06:58:31;99509.31;;;19.11;100.00
4576;BME280;2300;51.874;8.430;2023-07-24T07:00:58;99491.75;;;19.02;100.00
4576;BME280;2300;51.874;8.430;2023-07-24T07:03:29;99504.19;;;19.04;100.00
4576;BME280;2300;51.874;8.430;2023-07-24T07:05:58;99493.66;;;18.79;100.00
4576;BME280;2300;51.874;8.430;2023-07-24T07:08:28;99500.56;;;18.81;100.00
4576;BME280;2300;51.874;8.430;2023-07-24T07:10:57;99507.88;;;18.77;100.00
4576;BME280;2300;51.874;8.430;2023-07-24T07:13:24;99500.78;;;18.71;100.00
4576;BME280;2300;51.874;8.430;2023-07-24T07:15:54;99515.09;;;18.78;100.00
4576;BME280;2300;51.874;8.430;2023-07-24T07:18:21;99506.41;;;18.94;100.00
4576;BME280;2300;51.874;8.430;2023-07-24T07:20:49;99486.41;;;18.92;100.00
4576;BME280;2300;51.874;8.430;2023-07-24T07:23:16;99467.03;;;19.00;100.00
4576;BME280;2300;51.874;8.430;2023-07-24T07:25:44;99501.34;;;19.49;100.00
4576;BME280;2300;51.874;8.430;2023-07-24T07:28:13;99503.81;;;19.50;100.00
4576;BME280;2300;51.874;8.430;2023-07-24T07:30:39;99504.88;;;19.63;100.00
4576;BME280;2300;51.874;8.430;2023-07-24T07:33:09;99509.00;;;19.65;100.00
4576;BME280;2300;51.874;8.430;2023-07-24T07:35:36;99481.16;;;19.43;100.00
4576;BME280;2300;51.874;8.430;2023-07-24T07:38:04;99472.47;;;19.36;100.00
4576;BME280;2300;51.874;8.430;2023-07-24T07:40:32;99485.56;;;19.36;100.00
4576;BME280;2300;51.874;8.430;2023-07-24T07:42:59;99489.56;;;19.21;100.00
4576;BME280;2300;51.874;8.430;2023-07-24T07:45:28;99492.22;;;19.26;100.00
4576;BME280;2300;51.874;8.430;2023-07-24T07:47:55;99499.72;;;19.17;100.00
4576;BME280;2300;51.874;8.430;2023-07-24T07:50:24;99470.84;;;19.13;100.00
4576;BME280;2300;51.874;8.430;2023-07-24T07:52:51;99456.72;;;19.01;100.00
4576;BME280;2300;51.874;8.430;2023-07-24T07:55:19;99492.19;;;19.48;100.00
4576;BME280;2300;51.874;8.430;2023-07-24T07:57:45;99498.72;;;19.75;100.00
4576;BME280;2300;51.874;8.430;2023-07-24T08:00:15;99488.28;;;19.89;100.00
4576;BME280;2300;51.874;8.430;2023-07-24T08:02:44;99491.91;;;19.98;100.00
4576;BME280;2300;51.874;8.430;2023-07-24T08:05:10;99488.16;;;20.02;100.00
4576;BME280;2300;51.874;8.430;2023-07-24T08:07:37;99496.59;;;20.28;100.00
4576;BME280;2300;51.874;8.430;2023-07-24T08:10:04;99490.59;;;20.61;100.00
4576;BME280;2300;51.874;8.430;2023-07-24T08:12:32;99476.31;;;20.71;99.46
4576;BME280;2300;51.874;8.430;2023-07-24T08:14:58;99486.28;;;21.06;98.70
4576;BME280;2300;51.874;8.430;2023-07-24T08:17:25;99468.13;;;20.83;96.28
4576;BME280;2300;51.874;8.430;2023-07-24T08:19:53;99475.31;;;20.84;96.31
4576;BME280;2300;51.874;8.430;2023-07-24T08:22:20;99474.50;;;20.49;95.69
4576;BME280;2300;51.874;8.430;2023-07-24T08:24:48;99479.59;;;20.56;95.90
4576;BME280;2300;51.874;8.430;2023-07-24T08:27:16;99466.31;;;20.44;95.29
4576;BME280;2300;51.874;8.430;2023-07-24T08:29:43;99477.13;;;20.45;95.99
4576;BME280;2300;51.874;8.430;2023-07-24T08:32:11;99461.16;;;20.20;96.04
4576;BME280;2300;51.874;8.430;2023-07-24T08:34:39;99475.09;;;20.29;96.59
4576;BME280;2300;51.874;8.430;2023-07-24T08:37:08;99475.09;;;20.20;96.70
4576;BME280;2300;51.874;8.430;2023-07-24T08:39:35;99462.78;;;20.21;96.65
4576;BME280;2300;51.874;8.430;2023-07-24T08:42:08;99477.38;;;20.27;96.70
4576;BME280;2300;51.874;8.430;2023-07-24T08:44:37;99448.69;;;20.09;96.03
4576;BME280;2300;51.874;8.430;2023-07-24T08:47:06;99462.00;;;20.29;95.56
4576;BME280;2300;51.874;8.430;2023-07-24T08:49:37;99474.78;;;20.39;95.87
4576;BME280;2300;51.874;8.430;2023-07-24T08:52:07;99466.06;;;20.15;95.24
4576;BME280;2300;51.874;8.430;2023-07-24T08:54:36;99463.13;;;20.20;94.94
4576;BME280;2300;51.874;8.430;2023-07-24T08:57:04;99473.88;;;20.52;94.57
4576;BME280;2300;51.874;8.430;2023-07-24T08:59:32;99472.38;;;20.63;93.93
4576;BME280;2300;51.874;8.430;2023-07-24T09:01:59;99471.09;;;20.52;91.83
4576;BME280;2300;51.874;8.430;2023-07-24T09:04:27;99466.81;;;20.72;92.06
4576;BME280;2300;51.874;8.430;2023-07-24T09:06:57;99465.34;;;20.83;91.04
4576;BME280;2300;51.874;8.430;2023-07-24T09:09:29;99465.34;;;20.57;90.03
4576;BME280;2300;51.874;8.430;2023-07-24T09:11:57;99468.94;;;20.66;90.56
4576;BME280;2300;51.874;8.430;2023-07-24T09:14:26;99463.19;;;20.63;91.57
4576;BME280;2300;51.874;8.430;2023-07-24T09:17:03;99461.22;;;20.72;90.82
4576;BME280;2300;51.874;8.430;2023-07-24T09:19:30;99467.13;;;20.87;89.54
4576;BME280;2300;51.874;8.430;2023-07-24T09:22:07;99462.19;;;20.84;89.75
4576;BME280;2300;51.874;8.430;2023-07-24T09:24:36;99466.63;;;20.85;89.06
4576;BME280;2300;51.874;8.430;2023-07-24T09:27:05;99461.69;;;20.91;89.63
4576;BME280;2300;51.874;8.430;2023-07-24T09:29:33;99451.84;;;20.85;89.69
4576;BME280;2300;51.874;8.430;2023-07-24T09:32:00;99475.09;;;21.15;89.23
4576;BME280;2300;51.874;8.430;2023-07-24T09:34:27;99473.63;;;21.17;88.24
4576;BME280;2300;51.874;8.430;2023-07-24T09:36:54;99458.22;;;21.11;87.60
4576;BME280;2300;51.874;8.430;2023-07-24T09:39:25;99460.81;;;21.33;87.14
4576;BME280;2300;51.874;8.430;2023-07-24T09:42:02;99468.28;;;21.59;86.80
4576;BME280;2300;51.874;8.430;2023-07-24T09:44:36;99451.03;;;21.65;86.25
4576;BME280;2300;51.874;8.430;2023-07-24T09:47:06;99448.38;;;21.69;84.38
4576;BME280;2300;51.874;8.430;2023-07-24T09:49:33;99436.56;;;22.01;84.13
4576;BME280;2300;51.874;8.430;2023-07-24T09:52:05;99446.44;;;22.70;82.90
4576;BME280;2300;51.874;8.430;2023-07-24T09:54:40;99441.84;;;23.19;81.88
4576;BME280;2300;51.874;8.430;2023-07-24T09:57:14;99429.69;;;23.15;79.45
4576;BME280;2300;51.874;8.430;2023-07-24T09:59:41;99422.78;;;23.12;79.78
4576;BME280;2300;51.874;8.430;2023-07-24T10:02:11;99438.50;;;23.37;79.30
4576;BME280;2300;51.874;8.430;2023-07-24T10:04:40;99432.44;;;23.02;75.95
4576;BME280;2300;51.874;8.430;2023-07-24T10:07:13;99420.88;;;22.92;77.12
4576;BME280;2300;51.874;8.430;2023-07-24T10:09:42;99408.22;;;22.53;77.21
4576;BME280;2300;51.874;8.430;2023-07-24T10:12:09;99433.84;;;22.55;78.23
4576;BME280;2300;51.874;8.430;2023-07-24T10:14:38;99430.38;;;22.37;78.79
4576;BME280;2300;51.874;8.430;2023-07-24T10:17:06;99417.91;;;22.35;79.47
4576;BME280;2300;51.874;8.430;2023-07-24T10:19:36;99422.66;;;22.13;79.42
4576;BME280;2300;51.874;8.430;2023-07-24T10:22:06;99434.41;;;22.07;83.37
4576;BME280;2300;51.874;8.430;2023-07-24T10:24:33;99426.16;;;21.72;87.45
4576;BME280;2300;51.874;8.430;2023-07-24T10:27:02;99430.00;;;21.59;90.87
4576;BME280;2300;51.874;8.430;2023-07-24T10:29:34;99426.91;;;21.52;90.00
4576;BME280;2300;51.874;8.430;2023-07-24T10:32:03;99425.19;;;21.39;93.28
4576;BME280;2300;51.874;8.430;2023-07-24T10:34:37;99428.94;;;21.43;94.30
4576;BME280;2300;51.874;8.430;2023-07-24T10:37:07;99438.03;;;21.23;95.38
4576;BME280;2300;51.874;8.430;2023-07-24T10:39:38;99431.69;;;20.88;94.89
4576;BME280;2300;51.874;8.430;2023-07-24T10:42:09;99442.66;;;20.33;98.70
4576;BME280;2300;51.874;8.430;2023-07-24T10:44:39;99439.50;;;20.17;100.00
4576;BME280;2300;51.874;8.430;2023-07-24T10:47:07;99426.44;;;20.78;100.00
4576;BME280;2300;51.874;8.430;2023-07-24T10:49:34;99425.31;;;21.43;100.00
4576;BME280;2300;51.874;8.430;2023-07-24T10:52:01;99432.09;;;21.71;100.00
4576;BME280;2300;51.874;8.430;2023-07-24T10:54:31;99431.47;;;21.95;98.53
4576;BME280;2300;51.874;8.430;2023-07-24T10:57:03;99429.66;;;22.28;99.16
4576;BME280;2300;51.874;8.430;2023-07-24T10:59:37;99390.13;;;22.50;97.65
4576;BME280;2300;51.874;8.430;2023-07-24T11:02:05;99399.47;;;22.54;91.00
4576;BME280;2300;51.874;8.430;2023-07-24T11:04:33;99428.97;;;22.73;90.92
4576;BME280;2300;51.874;8.430;2023-07-24T11:07:00;99428.06;;;22.39;88.62
4576;BME280;2300;51.874;8.430;2023-07-24T11:09:37;99422.22;;;22.53;87.63
4576;BME280;2300;51.874;8.430;2023-07-24T11:12:15;99414.84;;;22.69;88.42
4576;BME280;2300;51.874;8.430;2023-07-24T11:14:47;99423.34;;;22.93;87.60
4576;BME280;2300;51.874;8.430;2023-07-24T11:17:14;99437.13;;;22.98;87.16
4576;BME280;2300;51.874;8.430;2023-07-24T11:19:42;99415.44;;;22.95;87.67
4576;BME280;2300;51.874;8.430;2023-07-24T11:22:08;99428.00;;;23.01;87.16
4576;BME280;2300;51.874;8.430;2023-07-24T11:27:13;99435.78;;;23.29;89.81
4576;BME280;2300;51.874;8.430;2023-07-24T11:29:47;99438.94;;;23.72;86.20
4576;BME280;2300;51.874;8.430;2023-07-24T11:32:17;99435.88;;;23.65;84.40
4576;BME280;2300;51.874;8.430;2023-07-24T11:34:45;99425.47;;;23.54;84.26
4576;BME280;2300;51.874;8.430;2023-07-24T11:37:15;99396.06;;;23.02;85.57
4576;BME280;2300;51.874;8.430;2023-07-24T11:39:41;99428.56;;;23.28;86.74
4576;BME280;2300;51.874;8.430;2023-07-24T11:42:08;99424.47;;;23.25;86.22
4576;BME280;2300;51.874;8.430;2023-07-24T11:44:35;99428.91;;;23.26;85.22
4576;BME280;2300;51.874;8.430;2023-07-24T11:47:03;99421.75;;;23.04;83.22
4576;BME280;2300;51.874;8.430;2023-07-24T11:49:31;99393.94;;;22.67;83.69
4576;BME280;2300;51.874;8.430;2023-07-24T11:52:04;99399.41;;;22.63;85.75
4576;BME280;2300;51.874;8.430;2023-07-24T11:54:34;99370.66;;;22.95;88.09
4576;BME280;2300;51.874;8.430;2023-07-24T11:57:01;99387.31;;;23.61;84.93
4576;BME280;2300;51.874;8.430;2023-07-24T11:59:28;99395.50;;;23.78;81.41
4576;BME280;2300;51.874;8.430;2023-07-24T12:01:57;99372.59;;;23.40;80.86
4576;BME280;2300;51.874;8.430;2023-07-24T12:04:25;99383.34;;;23.50;79.81
4576;BME280;2300;51.874;8.430;2023-07-24T12:06:52;99379.16;;;23.56;81.54
4576;BME280;2300;51.874;8.430;2023-07-24T12:09:29;99364.47;;;23.47;80.89
4576;BME280;2300;51.874;8.430;2023-07-24T12:12:08;99348.09;;;23.61;81.51
4576;BME280;2300;51.874;8.430;2023-07-24T12:14:40;99363.84;;;23.78;79.49
4576;BME280;2300;51.874;8.430;2023-07-24T12:17:08;99354.84;;;23.97;80.46
4576;BME280;2300;51.874;8.430;2023-07-24T12:19:39;99352.31;;;23.67;78.06
4576;BME280;2300;51.874;8.430;2023-07-24T12:22:06;99333.63;;;23.59;78.55
4576;BME280;2300;51.874;8.430;2023-07-24T12:24:34;99353.66;;;23.25;78.96
4576;BME280;2300;51.874;8.430;2023-07-24T12:27:03;99358.88;;;23.02;80.04
4576;BME280;2300;51.874;8.430;2023-07-24T12:29:30;99325.69;;;22.47;81.30
4576;BME280;2300;51.874;8.430;2023-07-24T12:31:57;99325.31;;;22.15;82.41
4576;BME280;2300;51.874;8.430;2023-07-24T12:34:26;99366.22;;;21.99;84.73
4576;BME280;2300;51.874;8.430;2023-07-24T12:36:53;99372.50;;;21.96;84.66
4576;BME280;2300;51.874;8.430;2023-07-24T12:39:21;99382.34;;;21.64;87.17
4576;BME280;2300;51.874;8.430;2023-07-24T12:41:49;99385.84;;;21.53;91.07
4576;BME280;2300;51.874;8.430;2023-07-24T12:44:15;99386.97;;;21.22;92.93
4576;BME280;2300;51.874;8.430;2023-07-24T12:46:42;99408.69;;;20.91;94.86
4576;BME280;2300;51.874;8.430;2023-07-24T12:49:09;99401.97;;;20.92;94.75
4576;BME280;2300;51.874;8.430;2023-07-24T12:51:38;99369.72;;;20.57;96.80
4576;BME280;2300;51.874;8.430;2023-07-24T12:54:05;99391.97;;;20.22;99.86
4576;BME280;2300;51.874;8.430;2023-07-24T12:56:31;99365.75;;;19.89;100.00
4576;BME280;2300;51.874;8.430;2023-07-24T12:59:01;99375.41;;;19.91;100.00
4576;BME280;2300;51.874;8.430;2023-07-24T13:01:29;99365.91;;;19.84;100.00
4576;BME280;2300;51.874;8.430;2023-07-24T13:03:55;99381.94;;;19.78;100.00
4576;BME280;2300;51.874;8.430;2023-07-24T13:06:22;99384.75;;;19.87;100.00
4576;BME280;2300;51.874;8.430;2023-07-24T13:08:49;99373.91;;;19.77;100.00
4576;BME280;2300;51.874;8.430;2023-07-24T13:11:17;99389.78;;;19.67;100.00
4576;BME280;2300;51.874;8.430;2023-07-24T13:13:43;99389.38;;;19.60;100.00
4576;BME280;2300;51.874;8.430;2023-07-24T13:16:12;99404.59;;;19.54;100.00
4576;BME280;2300;51.874;8.430;2023-07-24T13:18:39;99419.31;;;19.46;100.00
4576;BME280;2300;51.874;8.430;2023-07-24T13:21:07;99426.06;;;19.23;100.00
4576;BME280;2300;51.874;8.430;2023-07-24T13:23:34;99434.81;;;19.08;100.00